Accueil
METAR-TAF:

METAR-TAF

Aéroports :

Téhéran, Iran

Aéroport international Mehrabad

latitude: 35-41N, longitude: 051-21E, altitude: 1204 m

Observation

Le bulletin a été fait il y a 43 minutes, à 01:00 UTC
Vent 14 kt de ouest
Température 2°C
Humidité 47%
Pression 1018 hPa
Visibilité 10 km ou plus
Quelques nuages à une hauteur de 4000 ft

METAR: OIII 250100Z 27014KT 9999 FEW040 02/M08 Q1018 A3006 NOSIG

Heure: 05:13 (01:43 UTC)

Prévision

Le bulletin a été fait il y a 2 heures et 13 minutes, à 23:30 UTC
Prévision valable du 25 à 00 UTC au 26 à 06 UTC
Vent 14 kt de ouest/nord-ouest
Visibilité: 8000 m
Quelques nuages à une hauteur de 4000 ft
Temporairement
du 25 à 00 UTC au 25 à 06 UTC
Vent 17 kt de ouest avec des rafales jusqu'à 27 kt

TAF: OIII 242330Z 2500/2606 30007MPS 8000 FEW040 TEMPO 2500/2506 27009G14MPS

Observations et prévisions météorologiques de plus de 4000 aéroports (messages METAR et TAF).

Les stations disponibles sont représentées par des disques jaunes et rouges sur la carte.

Passer la souris dessus pour voir le nom de la station.

Cliquer dessus pour voir les observations et prévisions météorologiques.

Pour changer de carte: cliquez sur les boutons verts avec une croix noire pour zoomer, sur le bouton vert avec un tiret pour effectuer un zoom arrière, ou sur les flèches vertes pour les cartes adjacentes.


METAR-TAF: